Time;durP1;ratioP1;P1;durP2;ratioP2;P2;SDS_P1;SDS_P2;PMS_P1;PMS_P2;Temp;Humidity;BMP_temperature;BMP_pressure;BME280_temperature;BME280_humidity;BME280_pressure;Samples;Min_cycle;Max_cycle;Signal;HPM_P1;HPM_P2
2024/01/09 00:00:36;;;;;;;21.02;14.60;;;-3.10;50.40;;;;;;5039635;28;20287;-75
2024/01/09 00:03:23;;;;;;;24.27;15.50;;;-3.00;49.80;;;;;;5041306;28;20216;-75
2024/01/09 00:06:14;;;;;;;20.88;15.20;;;-3.10;48.60;;;;;;5035037;28;20223;-75
2024/01/09 00:08:59;;;;;;;23.15;15.07;;;-3.00;48.90;;;;;;5049765;28;20328;-75
2024/01/09 00:11:45;;;;;;;27.85;15.23;;;-3.00;47.90;;;;;;5044415;28;20229;-75
2024/01/09 00:14:31;;;;;;;19.85;13.27;;;-3.00;49.20;;;;;;5040643;28;20203;-75
2024/01/09 00:17:17;;;;;;;21.70;14.80;;;-2.90;48.80;;;;;;5048303;28;20205;-75
2024/01/09 00:20:04;;;;;;;20.48;14.57;;;-2.90;47.90;;;;;;5045122;28;20205;-75
2024/01/09 00:22:52;;;;;;;20.48;13.68;;;-2.90;47.50;;;;;;5042378;28;20210;-75
2024/01/09 00:25:37;;;;;;;22.35;14.15;;;-2.90;47.30;;;;;;5041097;28;20230;-75
2024/01/09 00:28:23;;;;;;;23.50;15.07;;;-2.90;47.40;;;;;;5046340;28;20232;-75
2024/01/09 00:31:11;;;;;;;21.25;13.45;;;-2.80;47.40;;;;;;5037760;28;20695;-74
2024/01/09 00:33:57;;;;;;;19.73;13.15;;;-2.90;47.30;;;;;;5037506;28;20208;-75
2024/01/09 00:36:45;;;;;;;19.73;13.88;;;-2.90;47.00;;;;;;5039589;28;20216;-75
2024/01/09 00:39:32;;;;;;;22.65;13.85;;;-2.90;46.90;;;;;;5042809;28;20308;-75
2024/01/09 00:42:18;;;;;;;20.15;13.30;;;-2.80;46.80;;;;;;5042056;28;20213;-75
2024/01/09 00:45:06;;;;;;;23.17;14.15;;;-2.90;45.20;;;;;;5040647;28;20239;-75
2024/01/09 00:47:57;;;;;;;19.38;13.50;;;-2.80;44.90;;;;;;5059248;28;20267;-74
2024/01/09 00:50:43;;;;;;;17.10;12.75;;;-2.80;45.10;;;;;;5046966;28;20209;-74
2024/01/09 00:53:30;;;;;;;20.25;13.70;;;-2.80;44.80;;;;;;5046675;28;20208;-75
2024/01/09 00:56:16;;;;;;;18.48;13.45;;;-2.80;45.20;;;;;;5037416;28;20592;-75
2024/01/09 00:59:01;;;;;;;19.77;13.15;;;-2.80;44.80;;;;;;5041684;28;20615;-75
2024/01/09 01:01:49;;;;;;;21.75;14.05;;;-2.70;45.30;;;;;;5043218;28;20233;-75
2024/01/09 01:04:38;;;;;;;22.30;15.60;;;-2.70;44.40;;;;;;5046196;28;20244;-76
2024/01/09 01:07:23;;;;;;;21.15;14.05;;;-2.80;46.50;;;;;;5042471;28;20207;-75
2024/01/09 01:10:12;;;;;;;19.40;13.20;;;-2.70;44.40;;;;;;5046257;28;20585;-75
2024/01/09 01:12:57;;;;;;;18.02;13.63;;;-2.70;44.40;;;;;;5041179;28;20735;-75
2024/01/09 01:15:43;;;;;;;22.50;13.85;;;-2.80;44.30;;;;;;5044636;28;20221;-75
2024/01/09 01:18:29;;;;;;;22.58;13.65;;;-2.70;44.40;;;;;;5046112;28;20229;-75
2024/01/09 01:21:15;;;;;;;19.33;12.63;;;-2.70;45.30;;;;;;5048705;28;20308;-75
2024/01/09 01:24:01;;;;;;;21.73;13.30;;;-2.70;44.70;;;;;;5050076;28;20202;-75
2024/01/09 01:26:48;;;;;;;19.45;13.20;;;-2.70;44.40;;;;;;5040962;28;20672;-75
2024/01/09 01:29:33;;;;;;;19.42;13.43;;;-2.60;44.50;;;;;;5045392;28;20225;-75
2024/01/09 01:32:19;;;;;;;18.65;13.20;;;-2.60;43.80;;;;;;5046757;28;20731;-75
2024/01/09 01:35:05;;;;;;;18.65;13.65;;;-2.60;44.10;;;;;;5045365;28;20221;-75
2024/01/09 01:37:51;;;;;;;16.33;11.52;;;-2.70;43.00;;;;;;5052927;28;20208;-74
2024/01/09 01:40:37;;;;;;;19.48;12.85;;;-2.70;42.60;;;;;;5058904;28;20581;-75
2024/01/09 01:43:24;;;;;;;21.45;13.95;;;-2.60;43.60;;;;;;5050745;28;20575;-75
2024/01/09 01:46:10;;;;;;;18.63;12.25;;;-2.60;44.20;;;;;;5048837;28;20224;-75
2024/01/09 01:48:56;;;;;;;21.33;13.63;;;-2.60;42.80;;;;;;5052269;28;20329;-74
2024/01/09 01:51:43;;;;;;;16.98;11.25;;;-2.50;42.50;;;;;;5050710;28;20206;-75
2024/01/09 01:54:29;;;;;;;15.85;10.75;;;-2.60;41.80;;;;;;5045376;28;20200;-75
2024/01/09 01:57:16;;;;;;;17.02;11.88;;;-2.50;40.70;;;;;;5048171;28;20789;-75
2024/01/09 02:00:03;;;;;;;14.77;10.98;;;-2.60;41.60;;;;;;5047918;28;20200;-75
2024/01/09 02:02:50;;;;;;;16.42;12.05;;;-2.60;41.90;;;;;;5044976;28;20203;-75
2024/01/09 02:05:36;;;;;;;16.52;11.48;;;-2.60;41.90;;;;;;5049732;28;20340;-75
2024/01/09 02:08:26;;;;;;;18.75;11.85;;;-2.50;40.90;;;;;;5048723;28;20306;-75
2024/01/09 02:11:11;;;;;;;16.30;12.23;;;-2.60;40.90;;;;;;5046429;28;20571;-75
2024/01/09 02:13:57;;;;;;;18.98;11.15;;;-2.50;41.30;;;;;;5048145;28;20572;-76
2024/01/09 02:16:44;;;;;;;17.55;11.48;;;-2.60;41.60;;;;;;5045376;28;20197;-75
2024/01/09 02:19:30;;;;;;;15.75;11.02;;;-2.60;43.00;;;;;;5045303;28;20257;-76
2024/01/09 02:22:16;;;;;;;18.60;12.00;;;-2.60;42.50;;;;;;5048459;28;20693;-75
2024/01/09 02:25:01;;;;;;;18.83;11.90;;;-2.60;40.60;;;;;;5044565;28;20216;-75
2024/01/09 02:27:58;;;;;;;19.55;12.57;;;-2.60;40.50;;;;;;5045142;28;20197;-75
2024/01/09 02:30:46;;;;;;;14.48;10.10;;;-2.60;40.80;;;;;;5045860;28;20197;-75
2024/01/09 02:33:33;;;;;;;15.57;11.50;;;-2.60;40.50;;;;;;5050661;28;20735;-75
2024/01/09 02:36:18;;;;;;;16.75;11.98;;;-2.60;39.30;;;;;;5045913;28;20203;-75
2024/01/09 02:39:04;;;;;;;17.10;11.85;;;-2.60;41.00;;;;;;5044988;28;20232;-74
2024/01/09 02:41:51;;;;;;;20.33;11.90;;;-2.70;41.10;;;;;;5050101;28;20618;-75
2024/01/09 02:44:37;;;;;;;23.95;11.43;;;-2.70;41.90;;;;;;5047008;28;20358;-75
2024/01/09 02:47:24;;;;;;;21.67;13.32;;;-2.80;42.90;;;;;;5049489;28;20603;-76
2024/01/09 02:50:10;;;;;;;17.30;11.55;;;-2.80;42.50;;;;;;5041562;28;20200;-75
2024/01/09 02:52:56;;;;;;;15.40;10.55;;;-2.80;42.40;;;;;;5052300;28;20209;-75
2024/01/09 02:55:42;;;;;;;19.25;11.35;;;-2.80;42.60;;;;;;5046643;28;20194;-75
2024/01/09 02:58:27;;;;;;;17.00;11.63;;;-2.70;42.60;;;;;;5048426;28;20225;-75
2024/01/09 03:01:13;;;;;;;16.38;12.00;;;-2.70;41.50;;;;;;5046011;28;20203;-75
2024/01/09 03:04:00;;;;;;;15.20;10.93;;;-2.60;40.80;;;;;;5048486;28;20623;-75
2024/01/09 03:06:45;;;;;;;17.40;11.15;;;-2.60;40.00;;;;;;5045549;28;20375;-75
2024/01/09 03:09:31;;;;;;;16.65;11.70;;;-2.60;41.40;;;;;;5048200;28;20262;-75
2024/01/09 03:12:16;;;;;;;14.50;10.38;;;-2.70;39.40;;;;;;5046784;28;20201;-75
2024/01/09 03:15:02;;;;;;;15.02;10.52;;;-2.70;41.40;;;;;;5050344;28;20199;-75
2024/01/09 03:17:48;;;;;;;16.60;12.02;;;-2.60;41.60;;;;;;5048653;28;20892;-75
2024/01/09 03:20:35;;;;;;;14.68;10.77;;;-2.70;41.30;;;;;;5049683;28;20505;-75
2024/01/09 03:23:21;;;;;;;17.73;11.30;;;-2.60;41.70;;;;;;5045098;28;20208;-75
2024/01/09 03:26:06;;;;;;;16.60;11.77;;;-2.60;41.10;;;;;;5046840;28;20211;-75
2024/01/09 03:28:52;;;;;;;15.50;10.93;;;-2.60;40.40;;;;;;5043996;28;20282;-75
2024/01/09 03:31:38;;;;;;;16.20;10.52;;;-2.70;41.10;;;;;;5049948;28;20211;-75
2024/01/09 03:34:23;;;;;;;19.08;12.48;;;-2.60;41.70;;;;;;5049915;28;20223;-74
2024/01/09 03:37:13;;;;;;;18.45;12.20;;;-2.60;40.70;;;;;;5061846;28;20199;-75
2024/01/09 03:39:58;;;;;;;16.15;11.88;;;-2.70;41.10;;;;;;5042584;28;20231;-75
2024/01/09 03:42:44;;;;;;;19.70;12.02;;;-2.70;40.70;;;;;;5042706;28;20263;-75
2024/01/09 03:45:30;;;;;;;17.15;11.85;;;-2.80;41.20;;;;;;5045545;28;20271;-75
2024/01/09 03:48:16;;;;;;;19.00;11.32;;;-2.70;42.30;;;;;;5046058;28;20236;-75
2024/01/09 03:51:01;;;;;;;17.80;11.70;;;-2.80;42.10;;;;;;5043118;28;20210;-74
2024/01/09 03:53:49;;;;;;;15.23;10.38;;;-2.70;43.30;;;;;;5030919;28;20218;-75
2024/01/09 03:56:34;;;;;;;18.98;11.70;;;-2.70;42.30;;;;;;5029145;28;20208;-75
2024/01/09 03:59:20;;;;;;;18.10;13.25;;;-2.60;41.00;;;;;;5034339;28;20288;-75
2024/01/09 04:02:06;;;;;;;17.30;11.98;;;-2.60;41.20;;;;;;5030038;28;20562;-74
2024/01/09 04:04:51;;;;;;;15.85;11.45;;;-2.70;41.10;;;;;;5031510;28;20202;-74
2024/01/09 04:07:37;;;;;;;17.75;11.40;;;-2.70;42.90;;;;;;5032625;28;20214;-74
2024/01/09 04:10:24;;;;;;;16.50;12.20;;;-2.80;43.50;;;;;;5037676;28;20229;-75
2024/01/09 04:13:10;;;;;;;18.33;10.98;;;-2.90;44.20;;;;;;5036492;28;20205;-75
2024/01/09 04:15:56;;;;;;;18.73;12.50;;;-2.80;44.30;;;;;;5036706;28;20207;-75
2024/01/09 04:18:41;;;;;;;20.35;12.55;;;-2.80;44.00;;;;;;5034578;28;20230;-75
2024/01/09 04:21:27;;;;;;;16.48;11.75;;;-2.70;42.00;;;;;;5033230;28;20208;-76
2024/01/09 04:24:13;;;;;;;17.75;11.65;;;-2.70;43.00;;;;;;5037086;28;20200;-75
2024/01/09 04:27:01;;;;;;;15.82;10.10;;;-2.80;42.40;;;;;;5044132;28;20894;-75
2024/01/09 04:29:47;;;;;;;19.75;11.63;;;-2.70;42.60;;;;;;5046445;28;20233;-75
2024/01/09 04:32:32;;;;;;;18.08;11.98;;;-2.70;42.20;;;;;;5028247;28;20198;-75
2024/01/09 04:35:18;;;;;;;17.75;12.30;;;-2.70;42.30;;;;;;5034667;28;20591;-75
2024/01/09 04:38:04;;;;;;;16.48;10.20;;;-2.70;41.80;;;;;;5044342;28;20295;-75
2024/01/09 04:40:50;;;;;;;19.08;12.00;;;-2.70;40.90;;;;;;5036118;28;20205;-75
2024/01/09 04:43:37;;;;;;;15.73;10.55;;;-2.70;41.10;;;;;;5031480;28;20225;-75
2024/01/09 04:46:23;;;;;;;19.30;11.43;;;-2.80;41.30;;;;;;5033693;28;20440;-75
2024/01/09 04:49:09;;;;;;;17.08;11.43;;;-2.80;40.40;;;;;;5043973;28;20292;-75
2024/01/09 04:51:54;;;;;;;20.20;11.98;;;-2.80;40.10;;;;;;5045439;28;20205;-75
2024/01/09 04:54:40;;;;;;;20.77;11.85;;;-2.80;40.80;;;;;;5038314;28;20685;-74
2024/01/09 04:57:26;;;;;;;17.15;11.82;;;-2.90;41.10;;;;;;5022622;28;21570;-75
2024/01/09 05:00:15;;;;;;;18.05;11.82;;;-2.90;41.80;;;;;;5030811;28;20340;-75
2024/01/09 05:03:01;;;;;;;18.45;11.45;;;-2.80;41.80;;;;;;5034066;28;20212;-74
2024/01/09 05:05:46;;;;;;;17.60;10.85;;;-2.80;41.50;;;;;;5037821;28;20221;-75
2024/01/09 05:08:32;;;;;;;19.02;11.63;;;-2.70;40.50;;;;;;5036980;28;20353;-75
2024/01/09 05:11:18;;;;;;;17.13;10.63;;;-2.60;39.80;;;;;;5033133;28;20202;-75
2024/01/09 05:14:03;;;;;;;15.70;10.10;;;-2.70;39.20;;;;;;5032214;28;20303;-75
2024/01/09 05:16:51;;;;;;;17.40;10.82;;;-2.70;40.90;;;;;;5031766;28;20273;-74
2024/01/09 05:19:36;;;;;;;16.10;11.32;;;-2.80;40.80;;;;;;5049667;28;20700;-75
2024/01/09 05:22:22;;;;;;;15.85;9.90;;;-2.90;41.10;;;;;;5049758;28;20205;-75
2024/01/09 05:25:08;;;;;;;20.52;11.25;;;-2.90;41.70;;;;;;5048505;28;20206;-75
2024/01/09 05:27:54;;;;;;;17.13;10.85;;;-2.90;40.90;;;;;;5037843;28;20840;-73
2024/01/09 05:30:39;;;;;;;15.35;10.77;;;-2.80;40.70;;;;;;5048724;28;20333;-74
2024/01/09 05:33:26;;;;;;;17.50;10.20;;;-2.90;40.30;;;;;;5047205;28;20350;-75
2024/01/09 05:36:12;;;;;;;17.10;11.05;;;-2.80;40.50;;;;;;5050103;28;20680;-75
2024/01/09 05:38:58;;;;;;;14.98;9.70;;;-2.70;41.30;;;;;;5045696;28;20271;-75
2024/01/09 05:41:44;;;;;;;15.85;11.90;;;-2.90;42.00;;;;;;5042433;28;20205;-74
2024/01/09 05:44:29;;;;;;;15.23;10.43;;;-2.90;42.00;;;;;;5045586;28;20428;-75
2024/01/09 05:47:15;;;;;;;13.73;9.50;;;-3.00;41.20;;;;;;5050261;28;20212;-75
2024/01/09 05:50:02;;;;;;;16.65;10.90;;;-3.00;39.60;;;;;;5040256;28;20205;-75
2024/01/09 05:52:48;;;;;;;19.80;12.45;;;-2.90;37.80;;;;;;5034006;28;20210;-75
2024/01/09 05:55:34;;;;;;;18.35;10.77;;;-2.80;37.80;;;;;;5027049;28;20204;-75
2024/01/09 05:58:19;;;;;;;16.95;11.10;;;-2.80;38.00;;;;;;5025183;28;20579;-75
2024/01/09 06:01:05;;;;;;;18.98;11.95;;;-2.80;36.50;;;;;;5025038;28;20669;-75
2024/01/09 06:03:51;;;;;;;17.42;11.50;;;-2.80;37.20;;;;;;5027254;28;20206;-75
2024/01/09 06:06:38;;;;;;;19.20;11.18;;;-2.90;36.70;;;;;;5029658;28;20312;-75
2024/01/09 06:09:24;;;;;;;18.60;12.68;;;-2.90;37.70;;;;;;5028468;28;20360;-75
2024/01/09 06:12:09;;;;;;;15.98;11.15;;;-2.90;37.90;;;;;;5026895;28;20345;-75
2024/01/09 06:14:55;;;;;;;18.48;11.48;;;-2.90;38.50;;;;;;5029600;28;20861;-74
2024/01/09 06:17:40;;;;;;;15.80;10.63;;;-2.90;37.00;;;;;;5026950;28;20253;-75
2024/01/09 06:20:26;;;;;;;17.42;11.48;;;-2.80;36.80;;;;;;5030443;28;20340;-75
2024/01/09 06:23:13;;;;;;;25.90;15.68;;;-2.80;35.60;;;;;;5029237;28;20670;-74
2024/01/09 06:25:59;;;;;;;19.55;12.65;;;-2.80;37.20;;;;;;5027960;28;20233;-75
2024/01/09 06:28:44;;;;;;;16.98;11.60;;;-2.80;36.80;;;;;;5031923;28;20265;-75
2024/01/09 06:31:30;;;;;;;21.52;12.80;;;-2.80;37.10;;;;;;5025864;28;20212;-74
2024/01/09 06:34:16;;;;;;;15.35;10.80;;;-2.90;37.70;;;;;;5029700;28;20209;-75
2024/01/09 06:37:02;;;;;;;17.58;10.45;;;-2.90;37.70;;;;;;5029175;28;20768;-75
2024/01/09 06:39:48;;;;;;;16.52;11.05;;;-3.00;38.10;;;;;;5027274;28;20534;-75
2024/01/09 06:42:34;;;;;;;19.17;11.90;;;-3.00;38.50;;;;;;5025611;28;20252;-74
2024/01/09 06:45:20;;;;;;;20.77;12.20;;;-2.90;37.70;;;;;;5031386;28;20204;-75
2024/01/09 06:48:07;;;;;;;16.45;10.85;;;-2.90;37.70;;;;;;5018977;28;20825;-75
2024/01/09 06:50:53;;;;;;;15.85;11.38;;;-3.00;36.50;;;;;;5029613;28;20206;-75
2024/01/09 06:53:39;;;;;;;16.30;10.90;;;-2.90;37.70;;;;;;5025437;28;20206;-75
2024/01/09 06:56:26;;;;;;;15.73;11.00;;;-2.90;37.40;;;;;;5030467;28;20202;-75
2024/01/09 06:59:12;;;;;;;17.95;11.63;;;-3.00;38.20;;;;;;5025158;28;20767;-75
2024/01/09 07:01:57;;;;;;;17.75;11.43;;;-3.00;37.60;;;;;;5025952;28;20266;-75
2024/01/09 07:04:43;;;;;;;15.45;11.27;;;-3.00;37.40;;;;;;5029398;28;20340;-73
2024/01/09 07:07:29;;;;;;;18.00;11.88;;;-3.00;37.60;;;;;;5025312;28;20241;-74
2024/01/09 07:10:14;;;;;;;22.00;14.27;;;-2.90;36.40;;;;;;5019434;28;20211;-73
2024/01/09 07:13:02;;;;;;;19.15;11.93;;;-2.90;37.60;;;;;;5027107;28;20747;-73
2024/01/09 07:15:47;;;;;;;17.95;12.05;;;-3.00;36.50;;;;;;5028760;28;20253;-73
2024/01/09 07:18:33;;;;;;;19.38;12.57;;;-3.00;36.90;;;;;;5029869;28;20262;-75
2024/01/09 07:21:18;;;;;;;20.42;12.60;;;-2.90;35.40;;;;;;5027300;28;20206;-75
2024/01/09 07:24:04;;;;;;;17.50;11.07;;;-2.80;34.60;;;;;;5030893;28;20205;-75
2024/01/09 07:26:50;;;;;;;21.52;12.45;;;-2.80;35.30;;;;;;5031659;28;20217;-75
2024/01/09 07:29:37;;;;;;;16.52;12.60;;;-2.80;35.20;;;;;;5029374;28;20380;-74
2024/01/09 07:32:23;;;;;;;16.63;12.75;;;-2.80;34.60;;;;;;5036551;28;20565;-75
2024/01/09 07:35:09;;;;;;;19.10;11.65;;;-2.80;35.10;;;;;;5027892;28;20353;-75
2024/01/09 07:37:54;;;;;;;17.00;10.50;;;-2.80;33.00;;;;;;5035361;28;20225;-75
2024/01/09 07:40:40;;;;;;;15.57;10.60;;;-2.70;32.40;;;;;;5031018;28;20574;-75
2024/01/09 07:43:25;;;;;;;19.35;12.85;;;-2.70;32.30;;;;;;5028157;28;20205;-75
2024/01/09 07:46:13;;;;;;;17.05;10.88;;;-2.80;32.70;;;;;;5031762;28;20578;-75
2024/01/09 07:48:58;;;;;;;17.52;12.20;;;-2.80;32.70;;;;;;5033216;28;20221;-75
2024/01/09 07:51:45;;;;;;;15.82;11.43;;;-2.80;32.30;;;;;;5040232;28;20576;-75
2024/01/09 07:54:31;;;;;;;17.23;12.23;;;-2.90;31.00;;;;;;5026255;28;20683;-75
2024/01/09 07:57:17;;;;;;;16.90;10.23;;;-2.80;32.00;;;;;;5028635;28;20269;-75
2024/01/09 08:00:04;;;;;;;16.30;11.52;;;-2.70;31.20;;;;;;5023219;28;20686;-75
2024/01/09 08:02:51;;;;;;;17.77;12.00;;;-2.70;29.40;;;;;;5033523;28;20206;-75
2024/01/09 08:05:37;;;;;;;21.20;13.15;;;-2.70;30.30;;;;;;5034717;28;20286;-75
2024/01/09 08:08:23;;;;;;;16.70;11.55;;;-2.60;30.20;;;;;;5027783;28;20229;-75
2024/01/09 08:11:09;;;;;;;15.15;10.30;;;-2.60;28.50;;;;;;5041152;28;20229;-75
2024/01/09 08:13:55;;;;;;;19.55;11.55;;;-2.50;28.90;;;;;;5043305;28;20789;-75
2024/01/09 08:16:42;;;;;;;17.20;11.20;;;-2.50;29.30;;;;;;5039697;28;20271;-75
2024/01/09 08:19:28;;;;;;;17.90;11.10;;;-2.60;28.50;;;;;;5028914;28;20224;-75
2024/01/09 08:22:14;;;;;;;19.08;11.80;;;-2.50;28.00;;;;;;5036767;28;20205;-75
2024/01/09 08:25:00;;;;;;;15.80;10.38;;;-2.50;28.60;;;;;;5037418;28;20275;-75
2024/01/09 08:27:46;;;;;;;21.63;11.45;;;-2.50;28.30;;;;;;5041725;28;20228;-75
2024/01/09 08:30:32;;;;;;;18.30;11.50;;;-2.50;28.00;;;;;;5032501;28;20362;-75
2024/01/09 08:33:18;;;;;;;18.40;11.45;;;-2.50;28.50;;;;;;5033619;28;20569;-75
2024/01/09 08:36:06;;;;;;;17.40;11.82;;;-2.40;27.20;;;;;;5035357;28;20220;-75
2024/01/09 08:38:51;;;;;;;19.00;11.63;;;-2.40;27.80;;;;;;5037461;28;20594;-75
2024/01/09 08:41:37;;;;;;;16.70;11.93;;;-2.40;27.30;;;;;;5032208;28;20674;-75
2024/01/09 08:44:25;;;;;;;15.40;10.57;;;-2.30;27.20;;;;;;5027932;28;20324;-74
2024/01/09 08:47:12;;;;;;;17.40;11.55;;;-2.20;25.30;;;;;;5035259;28;20653;-75
2024/01/09 08:49:57;;;;;;;17.05;11.23;;;-2.30;26.30;;;;;;5037405;28;20646;-75
2024/01/09 08:52:45;;;;;;;19.20;11.70;;;-2.20;25.80;;;;;;5036985;28;20214;-75
2024/01/09 08:55:30;;;;;;;17.00;11.45;;;-2.20;26.40;;;;;;5026258;28;20231;-75
2024/01/09 08:58:16;;;;;;;17.50;11.15;;;-2.10;24.20;;;;;;5035867;28;20218;-75
2024/01/09 09:01:02;;;;;;;18.65;12.30;;;-2.10;24.60;;;;;;5026882;28;20288;-75
2024/01/09 09:03:48;;;;;;;15.73;10.68;;;-2.10;24.40;;;;;;5041138;28;20205;-75
2024/01/09 09:06:34;;;;;;;16.90;10.50;;;-2.10;24.90;;;;;;5036735;28;20576;-74
2024/01/09 09:09:21;;;;;;;15.30;9.95;;;-2.00;23.80;;;;;;5037462;28;20287;-74
2024/01/09 09:12:07;;;;;;;17.90;12.90;;;-2.00;24.40;;;;;;5032533;28;20214;-75
2024/01/09 09:14:52;;;;;;;15.63;10.52;;;-2.00;23.70;;;;;;5031835;28;20704;-75
2024/01/09 09:17:38;;;;;;;18.90;11.43;;;-2.00;24.50;;;;;;5031100;28;20190;-74
2024/01/09 09:20:24;;;;;;;16.60;11.30;;;-2.00;24.20;;;;;;5028168;28;20725;-74
2024/01/09 09:23:09;;;;;;;21.52;12.25;;;-1.90;25.00;;;;;;5028349;28;20205;-75
2024/01/09 09:25:56;;;;;;;16.13;10.38;;;-1.90;23.90;;;;;;5025385;28;20209;-73
2024/01/09 09:28:44;;;;;;;14.43;9.80;;;-1.80;21.70;;;;;;5031754;28;20225;-74
2024/01/09 09:31:29;;;;;;;14.57;9.25;;;-1.80;21.10;;;;;;5039371;28;20578;-75
2024/01/09 09:34:15;;;;;;;17.95;10.05;;;-1.80;20.30;;;;;;5030614;28;20220;-75
2024/01/09 09:37:01;;;;;;;14.13;10.25;;;-1.80;19.60;;;;;;5036239;28;20200;-73
2024/01/09 09:39:46;;;;;;;19.30;11.30;;;-1.80;19.70;;;;;;5031459;28;20274;-75
2024/01/09 09:42:36;;;;;;;19.20;11.38;;;-1.70;18.50;;;;;;5035860;28;20337;-74
2024/01/09 09:45:23;;;;;;;19.65;11.48;;;-1.70;18.70;;;;;;5034225;28;20236;-75
2024/01/09 09:48:09;;;;;;;19.75;11.23;;;-1.60;18.50;;;;;;5029340;28;20735;-74
2024/01/09 09:50:55;;;;;;;17.90;11.60;;;-1.50;17.60;;;;;;5041795;28;20224;-75
2024/01/09 09:53:41;;;;;;;14.30;10.10;;;-1.50;17.90;;;;;;5034557;28;20217;-75
2024/01/09 09:56:29;;;;;;;16.15;10.57;;;-1.40;16.00;;;;;;5036149;28;20214;-75
2024/01/09 09:59:16;;;;;;;15.50;10.25;;;-1.40;15.40;;;;;;5031938;28;20229;-75
2024/01/09 10:02:06;;;;;;;17.70;11.07;;;-1.50;15.90;;;;;;5027782;28;20209;-75
2024/01/09 10:04:52;;;;;;;14.70;10.02;;;-1.40;15.00;;;;;;5041942;28;20677;-74
2024/01/09 10:07:39;;;;;;;14.75;9.77;;;-1.40;13.60;;;;;;5035234;28;20225;-75
2024/01/09 10:10:25;;;;;;;16.77;11.07;;;-1.30;14.30;;;;;;5047322;28;20199;-74
2024/01/09 10:13:11;;;;;;;15.68;9.60;;;-1.20;13.80;;;;;;5034496;28;20248;-75
2024/01/09 10:15:59;;;;;;;14.98;10.30;;;-1.20;14.80;;;;;;5031432;28;20308;-75
2024/01/09 10:18:46;;;;;;;16.05;9.90;;;-1.10;14.90;;;;;;5033484;28;20229;-75
2024/01/09 10:21:33;;;;;;;15.13;10.55;;;-1.00;13.70;;;;;;5030885;28;20626;-75
2024/01/09 10:24:18;;;;;;;15.27;9.75;;;-0.90;12.20;;;;;;5037957;28;20205;-75
2024/01/09 10:27:04;;;;;;;19.50;12.95;;;-0.90;11.90;;;;;;5035337;28;20305;-75
2024/01/09 10:29:50;;;;;;;16.42;9.88;;;-0.70;12.40;;;;;;5036140;28;20799;-75
2024/01/09 10:32:39;;;;;;;16.38;10.55;;;-0.60;12.10;;;;;;5031163;28;20197;-75
2024/01/09 10:35:24;;;;;;;18.20;9.75;;;-0.30;11.20;;;;;;5039246;28;20212;-75
2024/01/09 10:38:10;;;;;;;15.95;9.90;;;-0.10;10.00;;;;;;5040761;28;20350;-74
2024/01/09 10:40:57;;;;;;;17.08;8.93;;;0.20;10.40;;;;;;5039947;28;20212;-75
2024/01/09 10:43:44;;;;;;;11.93;8.90;;;0.70;10.50;;;;;;5032104;28;20213;-75
2024/01/09 10:46:31;;;;;;;16.88;8.88;;;1.10;7.70;;;;;;5027917;28;20292;-75
2024/01/09 10:49:18;;;;;;;16.48;9.50;;;1.40;7.10;;;;;;5030411;28;20726;-75
2024/01/09 10:52:05;;;;;;;13.80;7.70;;;1.60;7.00;;;;;;5036262;28;20212;-76
2024/01/09 10:54:52;;;;;;;14.00;8.88;;;2.00;6.70;;;;;;5037798;28;20305;-75
2024/01/09 10:57:40;;;;;;;15.55;8.57;;;2.50;6.00;;;;;;5032008;28;20719;-75
2024/01/09 11:00:28;;;;;;;14.38;8.05;;;2.60;4.40;;;;;;5031571;28;20688;-74
2024/01/09 11:03:14;;;;;;;17.52;9.55;;;2.50;3.60;;;;;;5038700;28;20305;-75
2024/01/09 11:06:04;;;;;;;11.55;7.60;;;2.40;5.00;;;;;;5034054;28;20228;-74
2024/01/09 11:08:55;;;;;;;19.70;7.50;;;2.60;4.20;;;;;;5034269;28;20221;-74
2024/01/09 11:11:42;;;;;;;11.20;7.75;;;2.50;3.60;;;;;;5037930;28;20244;-74
2024/01/09 11:14:28;;;;;;;13.60;8.90;;;2.40;4.60;;;;;;5032763;28;20209;-76
2024/01/09 11:17:16;;;;;;;13.40;8.02;;;2.30;4.20;;;;;;5042293;28;20210;-72
2024/01/09 11:20:06;;;;;;;13.07;8.18;;;2.20;4.20;;;;;;5024717;28;20715;-75
2024/01/09 11:22:53;;;;;;;10.73;7.13;;;2.10;4.50;;;;;;5021786;28;20272;-76
2024/01/09 11:25:39;;;;;;;10.63;7.57;;;1.90;3.50;;;;;;5019804;28;20210;-75
2024/01/09 11:28:37;;;;;;;12.40;8.07;;;1.80;4.10;;;;;;5050439;28;20281;-74
2024/01/09 11:31:23;;;;;;;14.57;8.52;;;1.40;4.20;;;;;;5030731;28;20244;-74
2024/01/09 11:34:09;;;;;;;15.82;9.23;;;1.20;5.10;;;;;;5032675;28;20209;-74
2024/01/09 11:36:54;;;;;;;13.95;8.50;;;1.10;4.90;;;;;;5033198;28;20212;-74
2024/01/09 11:39:42;;;;;;;13.93;9.30;;;1.10;5.40;;;;;;5028088;28;20341;-75
2024/01/09 11:42:27;;;;;;;13.98;8.30;;;1.10;4.70;;;;;;5027079;28;20287;-74
2024/01/09 11:45:19;;;;;;;9.98;7.45;;;0.90;4.40;;;;;;5037210;28;20719;-75
2024/01/09 11:48:06;;;;;;;11.05;6.88;;;0.70;5.70;;;;;;5026752;28;20720;-75
2024/01/09 11:50:52;;;;;;;15.73;8.18;;;0.70;6.30;;;;;;5040222;28;20323;-75
2024/01/09 11:53:37;;;;;;;13.15;7.60;;;0.70;7.00;;;;;;5031686;28;20672;-75
2024/01/09 11:56:26;;;;;;;14.68;8.30;;;0.80;6.40;;;;;;5039944;28;20210;-74
2024/01/09 11:59:11;;;;;;;11.60;8.00;;;0.70;6.30;;;;;;5026806;28;20225;-75
2024/01/09 12:01:57;;;;;;;12.48;8.48;;;0.80;6.10;;;;;;5041179;28;20217;-75
2024/01/09 12:04:43;;;;;;;13.02;9.18;;;0.70;6.30;;;;;;5033636;28;20409;-75
2024/01/09 12:07:29;;;;;;;11.57;8.23;;;0.70;5.70;;;;;;5030693;28;20276;-74
2024/01/09 12:10:16;;;;;;;14.23;7.93;;;0.70;6.30;;;;;;5034726;28;20677;-75
2024/01/09 12:13:05;;;;;;;11.68;8.00;;;0.80;6.00;;;;;;5034470;28;20197;-74
2024/01/09 12:15:50;;;;;;;11.38;7.50;;;0.80;6.00;;;;;;5035351;28;20255;-74
2024/01/09 12:18:47;;;;;;;12.10;7.85;;;0.80;5.40;;;;;;5019549;28;20289;-75
2024/01/09 12:21:34;;;;;;;12.20;7.35;;;0.90;6.00;;;;;;5031968;28;20673;-75
2024/01/09 12:24:20;;;;;;;16.27;8.15;;;1.00;5.60;;;;;;5037540;28;20204;-75
2024/01/09 12:27:06;;;;;;;12.13;8.50;;;1.10;5.00;;;;;;5026679;28;20206;-75
2024/01/09 12:29:53;;;;;;;14.05;7.57;;;1.10;4.90;;;;;;5037496;28;20648;-75
2024/01/09 12:32:39;;;;;;;10.40;6.53;;;1.10;4.30;;;;;;5037889;28;20559;-74
2024/01/09 12:35:24;;;;;;;12.50;7.43;;;1.20;4.80;;;;;;5036135;28;20696;-75
2024/01/09 12:38:10;;;;;;;12.30;7.88;;;1.20;5.20;;;;;;5027757;28;20275;-75
2024/01/09 12:41:00;;;;;;;12.20;7.93;;;1.50;4.60;;;;;;5029894;28;20209;-74
2024/01/09 12:43:45;;;;;;;11.55;6.95;;;1.80;4.10;;;;;;5031958;28;20202;-75
2024/01/09 12:46:32;;;;;;;11.20;6.95;;;2.10;3.40;;;;;;5027380;28;20207;-74
2024/01/09 12:49:18;;;;;;;13.43;6.88;;;2.30;2.80;;;;;;5028587;28;20236;-75
2024/01/09 12:52:03;;;;;;;14.00;8.30;;;2.60;2.50;;;;;;5040749;28;20204;-74
2024/01/09 12:54:49;;;;;;;13.00;6.53;;;3.10;2.50;;;;;;5028549;28;20274;-74
2024/01/09 12:57:35;;;;;;;11.27;6.60;;;3.60;1.80;;;;;;5042960;28;20707;-74
2024/01/09 13:00:21;;;;;;;9.50;6.03;;;4.00;1.40;;;;;;5030553;28;20201;-75
2024/01/09 13:03:08;;;;;;;13.60;7.95;;;4.40;1.00;;;;;;5034663;28;20583;-74
2024/01/09 13:05:55;;;;;;;10.55;6.63;;;4.90;1.00;;;;;;5031779;28;20205;-75
2024/01/09 13:08:41;;;;;;;11.80;6.25;;;5.90;1.00;;;;;;5026849;28;20230;-75
2024/01/09 13:11:26;;;;;;;11.38;6.95;;;6.70;1.00;;;;;;5029862;28;20210;-75
2024/01/09 13:14:13;;;;;;;13.40;6.80;;;7.20;1.00;;;;;;5040571;28;20225;-76
2024/01/09 13:16:58;;;;;;;12.30;6.67;;;8.00;1.00;;;;;;5033647;28;20481;-75
2024/01/09 13:19:47;;;;;;;11.27;6.47;;;8.60;1.00;;;;;;5041901;28;20591;-75
2024/01/09 13:22:34;;;;;;;10.17;5.33;;;9.10;1.00;;;;;;5040033;28;20435;-75
2024/01/09 13:25:20;;;;;;;10.63;5.83;;;9.30;1.00;;;;;;5048995;28;20500;-75
2024/01/09 13:28:06;;;;;;;12.17;5.43;;;9.90;1.00;;;;;;5035049;28;20445;-75
2024/01/09 13:30:52;;;;;;;10.00;5.43;;;8.70;1.00;;;;;;5045345;28;20517;-75
2024/01/09 13:33:38;;;;;;;11.77;6.27;;;7.00;1.00;;;;;;5049827;28;20900;-75
2024/01/09 13:36:25;;;;;;;9.03;5.53;;;5.70;1.00;;;;;;5048301;28;20565;-75
2024/01/09 13:39:14;;;;;;;9.60;6.00;;;4.30;1.00;;;;;;5044437;28;20841;-75
2024/01/09 13:41:59;;;;;;;10.70;6.25;;;3.50;1.00;;;;;;5037470;28;20427;-75
2024/01/09 13:44:45;;;;;;;11.25;6.22;;;3.10;1.00;;;;;;5037312;28;20218;-75
2024/01/09 13:47:30;;;;;;;11.55;6.38;;;2.70;1.00;;;;;;5034394;28;20586;-74
2024/01/09 13:50:16;;;;;;;10.57;6.10;;;2.40;1.00;;;;;;5043484;28;20394;-75
2024/01/09 13:53:03;;;;;;;17.77;6.30;;;2.20;1.00;;;;;;5047200;28;20228;-75
2024/01/09 13:55:49;;;;;;;10.63;6.00;;;2.00;1.00;;;;;;5031112;28;20249;-75
2024/01/09 13:58:35;;;;;;;9.43;6.20;;;1.80;1.00;;;;;;5034625;28;20712;-75
2024/01/09 14:01:21;;;;;;;9.48;6.05;;;1.70;1.00;;;;;;5037304;28;20692;-74
2024/01/09 14:04:11;;;;;;;9.98;5.60;;;1.60;1.00;;;;;;5039214;28;20208;-75
2024/01/09 14:06:57;;;;;;;12.93;6.55;;;1.60;1.00;;;;;;5032039;28;20208;-75
2024/01/09 14:09:45;;;;;;;10.60;6.88;;;1.50;1.00;;;;;;5040530;28;20307;-75
2024/01/09 14:12:31;;;;;;;11.80;7.65;;;1.40;1.00;;;;;;5035894;28;20232;-75